Time;durP1;ratioP1;P1;durP2;ratioP2;P2;SDS_P1;SDS_P2;PMS_P1;PMS_P2;Temp;Humidity;BMP_temperature;BMP_pressure;BME280_temperature;BME280_humidity;BME280_pressure;Samples;Min_cycle;Max_cycle;Signal;HPM_P1;HPM_P2
2023/09/16 00:00:08;;;;;;;89.40;52.47;;;17.40;99.90;;;;;;4984394;28;20418;-80
2023/09/16 00:02:37;;;;;;;88.17;50.80;;;17.50;99.90;;;;;;4984131;28;20195;-79
2023/09/16 00:05:04;;;;;;;87.50;48.77;;;17.50;99.90;;;;;;4966818;28;20415;-79
2023/09/16 00:07:31;;;;;;;87.03;50.00;;;17.50;99.90;;;;;;4983976;28;20407;-79
2023/09/16 00:09:57;;;;;;;86.43;49.13;;;17.50;99.90;;;;;;4985079;28;20495;-79
2023/09/16 00:14:51;;;;;;;89.23;52.70;;;17.40;99.90;;;;;;5348216;23;20449;-81
2023/09/16 00:17:17;;;;;;;94.20;50.33;;;17.30;99.90;;;;;;4995528;28;20408;-81
2023/09/16 00:19:43;;;;;;;91.00;51.50;;;17.30;99.90;;;;;;4995670;28;20466;-81
2023/09/16 00:22:10;;;;;;;86.93;49.23;;;17.20;99.90;;;;;;4983516;28;20184;-81
2023/09/16 00:24:36;;;;;;;86.10;48.83;;;17.20;99.90;;;;;;4976339;28;20850;-81
2023/09/16 00:27:02;;;;;;;86.10;51.80;;;17.30;99.90;;;;;;4975985;28;20896;-81
2023/09/16 00:29:28;;;;;;;85.87;48.67;;;17.30;99.90;;;;;;4976315;28;20402;-81
2023/09/16 00:31:53;;;;;;;85.10;47.73;;;17.30;99.90;;;;;;4977661;28;20188;-81
2023/09/16 00:34:19;;;;;;;85.87;48.00;;;17.30;99.90;;;;;;4979895;28;20167;-81
2023/09/16 00:36:45;;;;;;;94.03;54.83;;;17.30;99.90;;;;;;4979523;28;20668;-81
2023/09/16 00:39:10;;;;;;;87.60;51.50;;;17.30;99.90;;;;;;4979778;28;20257;-81
2023/09/16 00:41:36;;;;;;;85.67;47.93;;;17.30;99.90;;;;;;4979256;28;20188;-81
2023/09/16 00:44:02;;;;;;;86.07;51.90;;;17.30;99.90;;;;;;4979163;28;20286;-81
2023/09/16 00:46:28;;;;;;;93.27;55.60;;;17.30;99.90;;;;;;4978942;28;20502;-81
2023/09/16 00:48:54;;;;;;;87.30;51.93;;;17.20;99.90;;;;;;4978853;28;20168;-81
2023/09/16 00:51:20;;;;;;;87.10;54.20;;;17.20;99.90;;;;;;4979053;28;20541;-81
2023/09/16 00:53:46;;;;;;;86.27;50.40;;;17.20;99.90;;;;;;4961378;28;20426;-81
2023/09/16 00:56:13;;;;;;;81.80;41.10;;;17.20;99.90;;;;;;4979547;28;20403;-81
2023/09/16 00:58:40;;;;;;;82.83;43.37;;;17.30;99.90;;;;;;4979320;28;20167;-81
2023/09/16 01:01:08;;;;;;;83.27;41.90;;;17.30;99.90;;;;;;4961341;28;20445;-81
2023/09/16 01:03:35;;;;;;;81.70;38.30;;;17.20;99.90;;;;;;4961300;28;20454;-81
2023/09/16 01:06:03;;;;;;;82.33;38.77;;;17.20;99.90;;;;;;4979062;28;20458;-81
2023/09/16 01:08:29;;;;;;;79.93;35.50;;;17.20;99.90;;;;;;4979510;28;20438;-81
2023/09/16 01:10:55;;;;;;;83.93;42.47;;;17.10;99.90;;;;;;4979706;28;20901;-81
2023/09/16 01:13:21;;;;;;;84.17;45.43;;;17.10;99.90;;;;;;4979556;28;20415;-81
2023/09/16 01:15:57;;;;;;;86.80;53.63;;;17.00;99.90;;;;;;4978777;28;20207;-81
2023/09/16 01:18:27;;;;;;;86.27;47.77;;;16.90;99.90;;;;;;4961566;28;20785;-81
2023/09/16 01:20:55;;;;;;;86.30;49.73;;;16.90;99.90;;;;;;4961694;28;20486;-81
2023/09/16 01:23:21;;;;;;;85.90;50.77;;;17.00;99.90;;;;;;4979018;28;20443;-81
2023/09/16 01:25:46;;;;;;;86.47;50.27;;;17.10;99.90;;;;;;4961886;28;20766;-81
2023/09/16 01:28:13;;;;;;;86.47;50.80;;;17.10;99.90;;;;;;5053668;23;20702;-81
2023/09/16 01:30:47;;;;;;;87.67;55.00;;;17.00;99.90;;;;;;4998858;28;20250;-82
2023/09/16 01:33:18;;;;;;;87.77;54.83;;;17.00;99.90;;;;;;4978462;28;20722;-81
2023/09/16 01:35:47;;;;;;;94.20;55.60;;;17.00;99.90;;;;;;4979213;28;20908;-81
2023/09/16 01:38:15;;;;;;;88.93;58.93;;;17.00;99.90;;;;;;4978552;28;20395;-81
2023/09/16 01:40:43;;;;;;;88.70;54.47;;;17.00;99.90;;;;;;4978682;28;20828;-81
2023/09/16 01:43:10;;;;;;;85.30;47.87;;;17.00;99.90;;;;;;4978491;28;20474;-81
2023/09/16 01:45:43;;;;;;;88.17;51.40;;;16.90;99.90;;;;;;4979137;28;20439;-81
2023/09/16 01:48:09;;;;;;;87.97;49.37;;;17.00;99.90;;;;;;4978901;28;20395;-81
2023/09/16 01:50:35;;;;;;;85.70;50.33;;;16.90;99.90;;;;;;4978621;28;20399;-81
2023/09/16 01:53:01;;;;;;;87.00;48.83;;;16.90;99.90;;;;;;4978528;28;20431;-81
2023/09/16 01:55:27;;;;;;;85.77;49.43;;;16.80;99.90;;;;;;4978098;28;20486;-81
2023/09/16 01:57:53;;;;;;;86.20;51.03;;;16.80;99.90;;;;;;4978565;28;20453;-81
2023/09/16 02:00:19;;;;;;;86.70;51.07;;;16.70;99.90;;;;;;4979048;28;20407;-81
2023/09/16 02:02:45;;;;;;;84.97;48.07;;;16.70;99.90;;;;;;4978757;28;20952;-81
2023/09/16 02:05:10;;;;;;;85.83;49.20;;;16.70;99.90;;;;;;4978344;28;20171;-81
2023/09/16 02:07:36;;;;;;;88.07;47.90;;;16.70;99.90;;;;;;4978571;28;20168;-81
2023/09/16 02:10:03;;;;;;;85.93;54.30;;;16.60;99.90;;;;;;4960839;28;20415;-81
2023/09/16 02:12:29;;;;;;;85.40;51.60;;;16.60;99.90;;;;;;4977672;28;20634;-81
2023/09/16 02:14:54;;;;;;;85.27;47.73;;;16.60;99.90;;;;;;4977844;28;20490;-81
2023/09/16 02:17:20;;;;;;;88.20;52.70;;;16.70;99.90;;;;;;4978208;28;20250;-81
2023/09/16 02:19:46;;;;;;;86.17;51.80;;;16.60;99.90;;;;;;4978221;28;20174;-81
2023/09/16 02:22:12;;;;;;;84.57;50.27;;;16.60;99.90;;;;;;4977844;28;20427;-81
2023/09/16 02:24:37;;;;;;;84.17;48.40;;;16.50;99.90;;;;;;4977464;28;20218;-81
2023/09/16 02:27:04;;;;;;;86.00;48.40;;;16.50;99.90;;;;;;4977374;28;20637;-81
2023/09/16 02:29:32;;;;;;;87.43;49.03;;;16.50;99.90;;;;;;4978019;28;20230;-81
2023/09/16 02:31:58;;;;;;;84.90;49.47;;;16.50;99.90;;;;;;4977100;28;20431;-81
2023/09/16 02:34:24;;;;;;;85.60;50.67;;;16.50;99.90;;;;;;4977387;28;20417;-81
2023/09/16 02:36:49;;;;;;;87.40;54.83;;;16.50;99.90;;;;;;4977735;28;20183;-81
2023/09/16 02:39:15;;;;;;;88.80;51.53;;;16.40;99.90;;;;;;4977923;28;20168;-81
2023/09/16 02:41:41;;;;;;;85.77;51.10;;;16.40;99.90;;;;;;4976181;28;20188;-81
2023/09/16 02:44:07;;;;;;;87.00;52.77;;;16.30;99.90;;;;;;4977557;28;20198;-81
2023/09/16 02:46:33;;;;;;;86.07;53.17;;;16.30;99.90;;;;;;4977641;28;20163;-81
2023/09/16 02:48:59;;;;;;;84.07;49.00;;;16.30;99.90;;;;;;4977073;28;20399;-81
2023/09/16 02:51:25;;;;;;;84.80;48.53;;;16.20;99.90;;;;;;4975339;28;20239;-81
2023/09/16 02:53:55;;;;;;;85.93;52.53;;;16.20;99.90;;;;;;4976807;28;20804;-81
2023/09/16 02:56:20;;;;;;;86.73;55.23;;;16.20;99.90;;;;;;4977679;28;20446;-81
2023/09/16 02:58:46;;;;;;;86.27;53.07;;;16.10;99.90;;;;;;4977883;28;20395;-81
2023/09/16 03:01:11;;;;;;;90.37;54.83;;;16.10;99.90;;;;;;4959709;28;20188;-81
2023/09/16 03:03:37;;;;;;;89.30;53.80;;;16.10;99.90;;;;;;4977183;28;20223;-81
2023/09/16 03:06:03;;;;;;;87.53;52.13;;;16.00;99.90;;;;;;4976558;28;20179;-81
2023/09/16 03:08:29;;;;;;;85.00;49.90;;;16.00;99.90;;;;;;4976930;28;20571;-81
2023/09/16 03:11:05;;;;;;;85.53;51.63;;;15.90;99.90;;;;;;4959065;28;20439;-81
2023/09/16 03:13:30;;;;;;;86.70;55.13;;;15.90;99.90;;;;;;4976431;28;20166;-81
2023/09/16 03:16:17;;;;;;;87.67;53.73;;;15.90;99.90;;;;;;4976221;28;20399;-81
2023/09/16 03:18:45;;;;;;;88.37;55.67;;;16.00;99.90;;;;;;4976257;28;20163;-81
2023/09/16 03:21:11;;;;;;;87.40;56.07;;;16.00;99.90;;;;;;4976305;28;20438;-81
2023/09/16 03:23:37;;;;;;;87.20;56.67;;;15.90;99.90;;;;;;4975927;28;20487;-81
2023/09/16 03:26:02;;;;;;;87.30;55.97;;;15.90;99.90;;;;;;4975777;28;20442;-81
2023/09/16 03:28:28;;;;;;;90.40;53.43;;;15.90;99.90;;;;;;4984899;28;20210;-81
2023/09/16 03:30:54;;;;;;;88.10;58.03;;;15.90;99.90;;;;;;4975948;28;20247;-81
2023/09/16 03:33:19;;;;;;;88.97;52.70;;;15.90;99.90;;;;;;4976137;28;20175;-81
2023/09/16 03:35:45;;;;;;;85.30;51.67;;;15.90;99.90;;;;;;4976002;28;20172;-81
2023/09/16 03:38:11;;;;;;;86.30;49.60;;;15.80;99.90;;;;;;4975951;28;20168;-81
2023/09/16 03:43:09;;;;;;;84.87;49.17;;;15.80;99.90;;;;;;5134638;22;20238;-81
2023/09/16 03:45:35;;;;;;;86.00;52.03;;;15.80;99.90;;;;;;4978114;28;20780;-81
2023/09/16 03:48:01;;;;;;;86.63;53.27;;;15.80;99.90;;;;;;4995308;28;20591;-81
2023/09/16 03:50:27;;;;;;;86.03;50.10;;;15.80;99.90;;;;;;4994701;28;20222;-81
2023/09/16 03:52:53;;;;;;;84.83;46.27;;;15.80;99.90;;;;;;4978011;28;20829;-81
2023/09/16 03:55:19;;;;;;;89.53;53.57;;;15.70;99.90;;;;;;4958640;28;20862;-81
2023/09/16 03:57:44;;;;;;;86.40;51.50;;;15.80;99.90;;;;;;4958275;28;20411;-81
2023/09/16 04:00:11;;;;;;;84.80;44.27;;;15.70;99.90;;;;;;4976410;28;20172;-81
2023/09/16 04:02:40;;;;;;;82.07;42.53;;;15.70;99.90;;;;;;4975766;28;20199;-81
2023/09/16 04:05:06;;;;;;;85.10;47.53;;;15.70;99.90;;;;;;4960651;28;20408;-81
2023/09/16 04:07:32;;;;;;;85.20;45.73;;;15.60;99.90;;;;;;4964786;28;20411;-81
2023/09/16 04:09:57;;;;;;;87.60;49.27;;;15.70;99.90;;;;;;4982072;28;20858;-81
2023/09/16 04:12:23;;;;;;;80.73;38.53;;;15.60;99.90;;;;;;4965060;28;20735;-81
2023/09/16 04:14:49;;;;;;;84.23;43.87;;;15.60;99.90;;;;;;4982240;28;20707;-81
2023/09/16 04:17:14;;;;;;;83.07;40.60;;;15.60;99.90;;;;;;4964682;28;20167;-81
2023/09/16 04:19:40;;;;;;;81.57;37.87;;;15.60;99.90;;;;;;4981994;28;20178;-81
2023/09/16 04:22:05;;;;;;;83.27;41.13;;;15.50;99.90;;;;;;4982376;28;20657;-81
2023/09/16 04:24:31;;;;;;;81.67;35.10;;;15.60;99.90;;;;;;4981944;28;20160;-81
2023/09/16 04:26:57;;;;;;;81.90;36.87;;;15.50;99.90;;;;;;4982105;28;20164;-81
2023/09/16 04:29:22;;;;;;;80.13;35.40;;;15.50;99.90;;;;;;4982215;28;20160;-81
2023/09/16 04:31:48;;;;;;;81.47;38.63;;;15.50;99.90;;;;;;4981753;28;20274;-81
2023/09/16 04:34:14;;;;;;;79.83;35.23;;;15.50;99.90;;;;;;4964459;28;20175;-81
2023/09/16 04:36:40;;;;;;;81.90;40.23;;;15.50;99.90;;;;;;4981573;28;20736;-81
2023/09/16 04:39:06;;;;;;;85.60;46.43;;;15.50;99.90;;;;;;4964609;28;20451;-81
2023/09/16 04:41:31;;;;;;;82.73;41.47;;;15.50;99.90;;;;;;4981915;28;20431;-81
2023/09/16 04:43:57;;;;;;;81.70;34.30;;;15.50;99.90;;;;;;4982266;28;20590;-81
2023/09/16 04:46:23;;;;;;;80.17;33.57;;;15.50;99.90;;;;;;4982444;28;20174;-81
2023/09/16 04:48:49;;;;;;;78.70;33.80;;;15.40;99.90;;;;;;4981894;28;20403;-81
2023/09/16 04:51:15;;;;;;;79.90;34.77;;;15.40;99.90;;;;;;4964094;28;20235;-81
2023/09/16 04:53:41;;;;;;;81.10;35.10;;;15.40;99.90;;;;;;4981650;28;20170;-81
2023/09/16 04:56:08;;;;;;;89.60;36.40;;;15.30;99.90;;;;;;4982120;28;20493;-81
2023/09/16 04:58:34;;;;;;;82.13;38.10;;;15.30;99.90;;;;;;4981850;28;20163;-81
2023/09/16 05:01:01;;;;;;;81.07;37.37;;;15.30;99.90;;;;;;4981803;28;20505;-81
2023/09/16 05:03:27;;;;;;;80.33;35.17;;;15.30;99.90;;;;;;4964019;28;20455;-81
2023/09/16 05:05:53;;;;;;;84.30;35.27;;;15.40;99.90;;;;;;4981798;28;20494;-81
2023/09/16 05:08:20;;;;;;;88.90;32.93;;;15.40;99.90;;;;;;4981465;28;20171;-81
2023/09/16 05:10:51;;;;;;;83.17;36.17;;;15.40;99.90;;;;;;4981791;28;20414;-81
2023/09/16 05:13:16;;;;;;;83.63;35.27;;;15.40;99.90;;;;;;4964513;28;20828;-81
2023/09/16 05:15:49;;;;;;;84.87;34.20;;;15.40;99.90;;;;;;4981537;28;20399;-81
2023/09/16 05:18:16;;;;;;;83.40;37.53;;;15.40;99.90;;;;;;4977889;28;20668;-81
2023/09/16 05:20:42;;;;;;;83.43;34.33;;;15.30;99.90;;;;;;4978998;28;20490;-82
2023/09/16 05:23:25;;;;;;;81.90;33.77;;;15.30;99.90;;;;;;4979698;28;20679;-81
2023/09/16 05:25:51;;;;;;;81.30;33.63;;;15.30;99.90;;;;;;4979769;28;20167;-81
2023/09/16 05:28:17;;;;;;;83.10;38.47;;;15.30;99.90;;;;;;4979093;28;20399;-81
2023/09/16 05:30:45;;;;;;;82.10;35.20;;;15.30;99.90;;;;;;4978299;28;20199;-81
2023/09/16 05:33:11;;;;;;;83.40;33.90;;;15.30;99.90;;;;;;4978317;28;20474;-81
2023/09/16 05:35:38;;;;;;;79.90;32.43;;;15.40;99.90;;;;;;4978265;28;20407;-81
2023/09/16 05:38:04;;;;;;;82.90;36.40;;;15.40;99.90;;;;;;4979001;28;20507;-81
2023/09/16 05:40:30;;;;;;;82.97;36.90;;;15.30;99.90;;;;;;4978163;28;20407;-81
2023/09/16 05:42:56;;;;;;;81.57;32.10;;;15.40;99.90;;;;;;4960638;28;20471;-81
2023/09/16 05:45:22;;;;;;;80.60;35.57;;;15.40;99.90;;;;;;4978420;28;20743;-81
2023/09/16 05:47:49;;;;;;;81.87;33.13;;;15.50;99.90;;;;;;4978552;28;20263;-81
2023/09/16 05:50:16;;;;;;;79.20;29.77;;;15.60;99.90;;;;;;4978149;28;20173;-81
2023/09/16 05:52:41;;;;;;;81.90;34.83;;;15.60;99.90;;;;;;4978060;28;20466;-81
2023/09/16 05:55:08;;;;;;;77.90;28.50;;;15.60;99.90;;;;;;4978053;28;20415;-81
2023/09/16 05:57:34;;;;;;;80.03;33.07;;;15.70;99.90;;;;;;4960451;28;20419;-81
2023/09/16 05:59:59;;;;;;;78.20;28.37;;;15.70;99.90;;;;;;4978004;28;20426;-81
2023/09/16 06:02:25;;;;;;;77.80;28.77;;;15.70;99.90;;;;;;4977936;28;20427;-81
2023/09/16 06:04:51;;;;;;;82.90;32.47;;;15.70;99.90;;;;;;4977840;28;20664;-81
2023/09/16 06:07:17;;;;;;;80.63;29.00;;;15.70;99.90;;;;;;4977356;28;20175;-81
2023/09/16 06:09:42;;;;;;;79.33;31.17;;;15.90;99.90;;;;;;4960344;28;20244;-81
2023/09/16 06:12:11;;;;;;;79.20;26.60;;;15.80;99.90;;;;;;4978016;28;20428;-81
2023/09/16 06:14:37;;;;;;;79.13;25.20;;;15.90;99.90;;;;;;4978030;28;20187;-81
2023/09/16 06:17:03;;;;;;;79.30;22.93;;;15.90;99.90;;;;;;4977670;28;20411;-81
2023/09/16 06:19:29;;;;;;;78.17;27.40;;;16.00;99.90;;;;;;4977521;28;20478;-81
2023/09/16 06:21:57;;;;;;;78.17;24.97;;;16.10;99.90;;;;;;4960290;28;20538;-81
2023/09/16 06:24:24;;;;;;;76.70;24.10;;;16.10;99.90;;;;;;4977949;28;20231;-81
2023/09/16 06:26:50;;;;;;;78.03;24.30;;;16.20;99.90;;;;;;4977401;28;20416;-81
2023/09/16 06:29:40;;;;;;;75.67;24.33;;;16.30;99.90;;;;;;4975788;28;20439;-81
2023/09/16 06:32:07;;;;;;;79.03;27.37;;;16.30;99.90;;;;;;4916505;28;20493;-81
2023/09/16 06:34:33;;;;;;;76.10;22.77;;;16.40;99.90;;;;;;4959822;28;20502;-81
2023/09/16 06:36:59;;;;;;;80.80;28.30;;;16.40;99.90;;;;;;4977279;28;21000;-81
2023/09/16 06:39:32;;;;;;;78.20;27.43;;;16.50;99.90;;;;;;4977053;28;20469;-81
2023/09/16 06:41:58;;;;;;;77.77;30.17;;;16.60;99.90;;;;;;4977147;28;20986;-81
2023/09/16 06:44:23;;;;;;;77.90;25.63;;;16.70;99.90;;;;;;4959742;28;20443;-81
2023/09/16 06:46:49;;;;;;;77.17;26.20;;;16.70;99.90;;;;;;4977149;28;20164;-81
2023/09/16 06:49:17;;;;;;;77.90;25.77;;;16.80;99.90;;;;;;4976916;28;20172;-81
2023/09/16 06:51:43;;;;;;;75.27;23.70;;;16.90;99.90;;;;;;4976766;28;20602;-79
2023/09/16 06:54:08;;;;;;;76.07;23.13;;;16.90;99.90;;;;;;4976319;28;20458;-80
2023/09/16 06:56:34;;;;;;;76.60;27.83;;;17.00;99.90;;;;;;4976524;28;20227;-80
2023/09/16 06:59:01;;;;;;;76.30;23.33;;;17.10;99.90;;;;;;4976149;28;20227;-79
2023/09/16 07:01:27;;;;;;;76.63;23.43;;;17.20;99.90;;;;;;4958574;28;20736;-80
2023/09/16 07:03:53;;;;;;;74.70;20.90;;;17.20;99.90;;;;;;4942710;28;20475;-79
2023/09/16 07:06:18;;;;;;;76.30;21.33;;;17.30;99.90;;;;;;4976003;28;20773;-80
2023/09/16 07:08:44;;;;;;;74.80;22.53;;;17.30;99.90;;;;;;4976121;28;20159;-80
2023/09/16 07:11:12;;;;;;;75.33;21.53;;;17.40;99.90;;;;;;5049200;22;20219;-80
2023/09/16 07:13:38;;;;;;;78.50;28.90;;;17.50;99.90;;;;;;5024311;23;20157;-80
2023/09/16 07:16:04;;;;;;;81.93;25.93;;;17.50;99.90;;;;;;4977939;28;20908;-80
2023/09/16 07:18:31;;;;;;;75.90;24.43;;;17.60;99.90;;;;;;4977135;28;20414;-78
2023/09/16 07:20:56;;;;;;;76.80;28.10;;;17.70;99.90;;;;;;4992261;28;20402;-78
2023/09/16 07:23:22;;;;;;;76.47;27.57;;;17.80;99.90;;;;;;4957732;28;20455;-78
2023/09/16 07:25:56;;;;;;;78.97;27.00;;;17.90;99.90;;;;;;4975092;28;20168;-78
2023/09/16 07:28:23;;;;;;;81.13;30.10;;;18.00;99.90;;;;;;4957699;28;20259;-77
2023/09/16 07:30:48;;;;;;;76.17;24.97;;;18.00;99.90;;;;;;4974919;28;20403;-78
2023/09/16 07:33:14;;;;;;;80.10;27.17;;;18.00;99.90;;;;;;4974856;28;20410;-78
2023/09/16 07:35:40;;;;;;;77.27;26.60;;;18.00;99.90;;;;;;4974784;28;20179;-77
2023/09/16 07:38:06;;;;;;;78.90;26.97;;;18.10;99.90;;;;;;4974891;28;20578;-77
2023/09/16 07:40:32;;;;;;;78.70;26.40;;;18.20;99.90;;;;;;4974404;28;20178;-78
2023/09/16 07:42:58;;;;;;;76.70;23.07;;;18.20;99.90;;;;;;4974456;28;20188;-78
2023/09/16 07:45:24;;;;;;;76.90;22.60;;;18.30;99.90;;;;;;4974900;28;20404;-78
2023/09/16 07:47:50;;;;;;;75.60;22.63;;;18.40;99.90;;;;;;4974672;28;20482;-77
2023/09/16 07:50:15;;;;;;;76.37;20.77;;;18.40;99.40;;;;;;4974930;28;20432;-78
2023/09/16 07:52:42;;;;;;;74.90;21.13;;;18.50;99.90;;;;;;5127988;23;20215;-79
2023/09/16 07:55:08;;;;;;;79.43;20.00;;;18.50;99.90;;;;;;5122197;22;20588;-80
2023/09/16 07:57:34;;;;;;;76.40;14.70;;;18.60;97.40;;;;;;4999657;28;20891;-80
2023/09/16 08:00:00;;;;;;;74.00;17.13;;;18.60;98.20;;;;;;4999507;28;20534;-80
2023/09/16 08:02:25;;;;;;;75.20;20.53;;;18.60;99.40;;;;;;4986167;28;20195;-80
2023/09/16 08:04:51;;;;;;;74.63;15.47;;;18.60;99.80;;;;;;4981451;28;20160;-80
2023/09/16 08:07:17;;;;;;;74.93;15.47;;;18.70;97.90;;;;;;4981078;28;20164;-80
2023/09/16 08:09:42;;;;;;;74.73;13.60;;;18.80;96.30;;;;;;4982270;28;20227;-80
2023/09/16 08:12:08;;;;;;;73.33;14.17;;;18.80;94.50;;;;;;4982917;28;20262;-80
2023/09/16 08:14:34;;;;;;;72.27;13.10;;;18.90;95.60;;;;;;4979716;28;20641;-80
2023/09/16 08:17:03;;;;;;;73.70;12.63;;;19.00;93.00;;;;;;4982010;28;20168;-80
2023/09/16 08:19:30;;;;;;;73.50;12.70;;;19.00;91.80;;;;;;4963668;28;20172;-80
2023/09/16 08:21:56;;;;;;;75.20;13.67;;;19.00;92.90;;;;;;4980060;28;20419;-80
2023/09/16 08:24:22;;;;;;;70.50;10.83;;;19.10;90.50;;;;;;4980913;28;20439;-80
2023/09/16 08:26:48;;;;;;;72.63;12.53;;;19.10;92.20;;;;;;4977818;28;20164;-80
2023/09/16 08:29:14;;;;;;;73.80;12.17;;;19.30;91.30;;;;;;4981785;28;20400;-80
2023/09/16 08:31:40;;;;;;;73.23;13.00;;;19.30;89.60;;;;;;4981074;28;20215;-80
2023/09/16 08:34:05;;;;;;;73.97;12.10;;;19.30;85.60;;;;;;4982567;28;20171;-80
2023/09/16 08:36:31;;;;;;;71.53;10.50;;;19.40;90.10;;;;;;4985360;28;20649;-80
2023/09/16 08:38:56;;;;;;;73.60;11.47;;;19.50;90.80;;;;;;4983232;28;20171;-80
2023/09/16 08:41:43;;;;;;;73.07;11.23;;;19.50;88.70;;;;;;4983418;28;20295;-80
2023/09/16 08:44:12;;;;;;;72.83;10.73;;;19.60;83.20;;;;;;4980699;28;20188;-81
2023/09/16 08:46:50;;;;;;;71.27;11.73;;;19.60;80.30;;;;;;4980032;28;20403;-81
2023/09/16 08:49:17;;;;;;;74.60;11.60;;;19.60;78.80;;;;;;4963353;28;20395;-81
2023/09/16 08:51:46;;;;;;;73.23;12.03;;;19.70;79.50;;;;;;4980442;28;20842;-80
2023/09/16 08:54:12;;;;;;;72.00;11.80;;;19.80;80.10;;;;;;4984344;28;20453;-80
2023/09/16 08:56:42;;;;;;;72.40;13.20;;;19.90;78.50;;;;;;4966427;28;20443;-80
2023/09/16 08:59:08;;;;;;;72.70;12.40;;;20.00;72.80;;;;;;4983825;28;20498;-80
2023/09/16 09:01:34;;;;;;;71.67;11.70;;;20.10;73.90;;;;;;4966502;28;20470;-80
2023/09/16 09:04:00;;;;;;;74.47;13.00;;;20.20;81.10;;;;;;4963475;28;20290;-80
2023/09/16 09:06:28;;;;;;;78.20;13.00;;;20.30;85.00;;;;;;4980886;28;20176;-80
2023/09/16 09:08:54;;;;;;;71.87;10.40;;;20.40;68.50;;;;;;4980973;28;20920;-78
2023/09/16 09:11:20;;;;;;;71.77;10.50;;;20.40;70.40;;;;;;4978979;28;20425;-78
2023/09/16 09:13:46;;;;;;;71.70;12.30;;;20.50;50.60;;;;;;4979881;28;20510;-78
2023/09/16 09:16:16;;;;;;;71.10;9.80;;;20.60;66.80;;;;;;4963081;28;20403;-78
2023/09/16 09:18:44;;;;;;;72.93;7.50;;;20.70;64.70;;;;;;4979692;28;20874;-78
2023/09/16 09:21:11;;;;;;;71.77;9.40;;;20.80;50.60;;;;;;4960910;28;20427;-78
2023/09/16 09:23:36;;;;;;;71.70;7.67;;;20.80;43.60;;;;;;4979250;28;20446;-78
2023/09/16 09:26:02;;;;;;;71.27;8.37;;;20.90;43.40;;;;;;4978632;28;20407;-78
2023/09/16 09:28:28;;;;;;;73.50;8.70;;;21.00;32.90;;;;;;4978916;28;20155;-79
2023/09/16 09:30:55;;;;;;;71.90;7.33;;;21.10;38.00;;;;;;4980657;28;20160;-79
2023/09/16 09:33:21;;;;;;;72.20;8.60;;;21.20;29.80;;;;;;4979416;28;20836;-78
2023/09/16 09:35:46;;;;;;;75.30;9.10;;;21.30;29.30;;;;;;4987212;28;20439;-79
2023/09/16 09:38:17;;;;;;;74.13;10.60;;;21.30;29.40;;;;;;4990407;28;20403;-79
2023/09/16 09:40:58;;;;;;;70.57;8.17;;;21.50;25.40;;;;;;4990067;28;20163;-79
2023/09/16 09:43:23;;;;;;;73.93;10.67;;;21.60;35.60;;;;;;4990239;28;20431;-79
2023/09/16 09:45:49;;;;;;;72.27;10.07;;;21.70;21.90;;;;;;4988827;28;20407;-79
2023/09/16 09:48:15;;;;;;;72.83;12.17;;;21.80;7.70;;;;;;4988069;28;20231;-79
2023/09/16 09:50:41;;;;;;;73.90;10.90;;;22.00;12.50;;;;;;4990608;28;20191;-79
2023/09/16 09:53:07;;;;;;;71.80;10.83;;;22.20;6.70;;;;;;4990213;28;20915;-80
2023/09/16 09:55:33;;;;;;;73.77;11.07;;;22.40;3.50;;;;;;4988935;28;20423;-79
2023/09/16 09:58:00;;;;;;;71.80;10.60;;;22.60;1.00;;;;;;4981962;28;20435;-79
2023/09/16 10:00:26;;;;;;;74.60;12.13;;;22.50;1.00;;;;;;4982352;28;20632;-78
2023/09/16 10:02:52;;;;;;;71.90;11.00;;;22.60;1.00;;;;;;4982332;28;20455;-79
2023/09/16 10:05:21;;;;;;;73.90;10.63;;;22.70;1.00;;;;;;4983458;28;20414;-79
2023/09/16 10:07:47;;;;;;;73.40;11.63;;;22.80;1.00;;;;;;4986605;28;20403;-79
2023/09/16 10:10:21;;;;;;;70.97;10.17;;;23.10;1.00;;;;;;4983606;28;20407;-78
2023/09/16 10:12:52;;;;;;;72.00;8.43;;;23.20;1.00;;;;;;4984200;28;20459;-79
2023/09/16 10:15:26;;;;;;;71.60;7.33;;;23.30;1.00;;;;;;4985081;28;20448;-78
2023/09/16 10:17:52;;;;;;;71.83;7.20;;;23.70;1.00;;;;;;4985877;28;20912;-78
2023/09/16 10:20:18;;;;;;;72.77;9.50;;;24.00;1.00;;;;;;4985728;28;20408;-78
2023/09/16 10:22:43;;;;;;;74.23;12.80;;;24.20;1.00;;;;;;4985036;28;20450;-79
2023/09/16 10:25:11;;;;;;;75.30;12.13;;;24.40;1.00;;;;;;4965925;28;20425;-79
2023/09/16 10:28:05;;;;;;;72.37;9.43;;;24.40;1.00;;;;;;4984680;28;20423;-79
2023/09/16 10:30:32;;;;;;;75.30;11.93;;;24.50;1.00;;;;;;4983711;28;20446;-79
2023/09/16 10:33:04;;;;;;;75.47;10.53;;;24.70;1.00;;;;;;4984821;28;20427;-78
2023/09/16 10:35:31;;;;;;;76.27;11.50;;;24.70;1.00;;;;;;4986136;28;20866;-78
2023/09/16 10:38:02;;;;;;;74.40;10.80;;;25.10;1.00;;;;;;4985287;28;20420;-79
2023/09/16 10:40:28;;;;;;;72.97;10.97;;;25.30;1.00;;;;;;4964905;28;20426;-79
2023/09/16 10:42:56;;;;;;;73.10;12.10;;;25.10;1.00;;;;;;4983998;28;21279;-79
2023/09/16 10:45:22;;;;;;;72.53;11.40;;;25.20;1.00;;;;;;4981203;28;20482;-79
2023/09/16 10:47:52;;;;;;;72.47;12.10;;;25.00;1.00;;;;;;4984821;28;20908;-79
2023/09/16 10:50:20;;;;;;;73.07;14.93;;;25.20;1.00;;;;;;4984026;28;20407;-79
2023/09/16 10:52:51;;;;;;;75.40;21.13;;;25.70;1.00;;;;;;4983869;28;20427;-79
2023/09/16 10:55:25;;;;;;;74.53;18.43;;;26.10;1.00;;;;;;4966761;28;20962;-79
2023/09/16 10:58:13;;;;;;;78.47;17.73;;;26.10;1.00;;;;;;4984813;28;20410;-79
2023/09/16 11:00:46;;;;;;;73.63;14.17;;;26.30;1.00;;;;;;4968670;28;20430;-79
2023/09/16 11:03:16;;;;;;;72.87;12.13;;;26.30;1.00;;;;;;4981750;28;20463;-79
2023/09/16 11:05:43;;;;;;;74.40;16.13;;;25.90;1.00;;;;;;5074851;22;20498;-79
2023/09/16 11:08:09;;;;;;;77.73;13.50;;;26.00;1.00;;;;;;5002023;28;20430;-79
2023/09/16 11:10:35;;;;;;;73.57;14.30;;;26.10;1.00;;;;;;5006216;28;20414;-79
2023/09/16 11:13:02;;;;;;;73.80;11.00;;;26.30;1.00;;;;;;4983980;28;20789;-79
2023/09/16 11:15:33;;;;;;;74.10;12.20;;;26.70;1.00;;;;;;4982342;28;20487;-79
2023/09/16 11:18:25;;;;;;;73.57;11.20;;;26.80;1.00;;;;;;4982440;28;20404;-79
2023/09/16 11:20:52;;;;;;;72.27;9.47;;;26.50;1.00;;;;;;4980325;28;20407;-79
2023/09/16 11:23:17;;;;;;;74.50;10.50;;;26.80;1.00;;;;;;4984113;28;20454;-79
2023/09/16 11:25:43;;;;;;;74.90;10.10;;;27.20;1.00;;;;;;4983486;28;20408;-79
2023/09/16 11:28:13;;;;;;;73.43;9.20;;;27.20;1.00;;;;;;4983755;28;20176;-79
2023/09/16 11:30:44;;;;;;;72.23;8.70;;;27.20;1.00;;;;;;4965735;28;20595;-78
2023/09/16 11:33:37;;;;;;;71.97;10.33;;;27.30;1.00;;;;;;4983027;28;20411;-79
2023/09/16 11:36:07;;;;;;;71.27;9.10;;;27.20;1.00;;;;;;4982239;28;21028;-79
2023/09/16 11:38:33;;;;;;;71.03;8.90;;;27.60;1.00;;;;;;4982688;28;20438;-79
2023/09/16 11:41:09;;;;;;;72.07;9.90;;;27.50;1.00;;;;;;4981114;28;20399;-78
2023/09/16 11:43:39;;;;;;;72.07;8.23;;;27.30;1.00;;;;;;4981872;28;20191;-79
2023/09/16 11:46:09;;;;;;;72.57;10.30;;;26.90;1.00;;;;;;4982163;28;20439;-79
2023/09/16 11:48:55;;;;;;;73.43;10.00;;;27.20;1.00;;;;;;4981782;28;20424;-79
2023/09/16 11:51:23;;;;;;;74.27;10.10;;;27.20;1.00;;;;;;4983948;28;20514;-79
2023/09/16 11:53:51;;;;;;;72.87;8.90;;;27.60;1.00;;;;;;4982642;28;20435;-79
2023/09/16 11:56:18;;;;;;;73.30;10.13;;;27.80;1.00;;;;;;4982008;28;20448;-79
2023/09/16 11:58:45;;;;;;;72.50;11.70;;;28.00;1.00;;;;;;4982617;28;20901;-79
2023/09/16 12:01:12;;;;;;;70.10;6.83;;;27.90;1.00;;;;;;4964788;28;20835;-79
2023/09/16 12:03:39;;;;;;;71.60;9.00;;;27.80;1.00;;;;;;4982318;28;20949;-79
2023/09/16 12:06:05;;;;;;;72.73;10.00;;;27.80;1.00;;;;;;4966001;28;20423;-78
2023/09/16 12:08:31;;;;;;;74.63;6.60;;;28.20;1.00;;;;;;4965702;28;20420;-79
2023/09/16 12:10:57;;;;;;;73.57;7.20;;;28.20;1.00;;;;;;4982986;28;20206;-79
2023/09/16 12:13:30;;;;;;;71.90;8.60;;;28.60;1.00;;;;;;4983751;28;20415;-79
2023/09/16 12:15:56;;;;;;;71.40;8.13;;;28.80;1.00;;;;;;4982770;28;20170;-78
2023/09/16 12:18:22;;;;;;;72.67;9.03;;;28.90;1.00;;;;;;4982964;28;20797;-79
2023/09/16 12:20:47;;;;;;;73.33;9.77;;;28.50;1.00;;;;;;4982968;28;20412;-79
2023/09/16 12:23:16;;;;;;;71.70;9.93;;;28.10;1.00;;;;;;4982006;28;20204;-79
2023/09/16 12:25:42;;;;;;;72.60;9.50;;;28.00;1.00;;;;;;4965449;28;20417;-79
2023/09/16 12:28:18;;;;;;;75.90;9.20;;;27.90;1.00;;;;;;4987150;28;20448;-79
2023/09/16 12:30:50;;;;;;;75.20;9.40;;;28.00;1.00;;;;;;4985194;28;20392;-79
2023/09/16 12:33:21;;;;;;;74.27;9.43;;;28.20;1.00;;;;;;4984292;28;20457;-79
2023/09/16 12:35:49;;;;;;;72.07;9.73;;;28.30;1.00;;;;;;4983236;28;20389;-79